Main page
METAR-TAF:

METAR-TAF

Airports :

Vilhena Airport

Vilhena, Rondônia, Brazil

latitude: 12-42S, longitude: 060-06W, elevation: 612 m

Current weather observation

The report was made 1 hour and 23 minutes ago, at 16:00 UTC
Wind 9 kt from the West, varying between West/Southwest and Northwest
Temperature 29°C
Humidity 62%
Pressure 1014 hPa
Visibility 10 km or more
Scattered clouds at a height of 2500 ft
Broken clouds at a height of 3000 ft
Few clouds at a height of 3500 ft, Towering cumulus.
showers in vicinity

METAR: SBVH 251600Z 27009KT 240V310 9999 VCSH SCT025 BKN030 FEW035TCU 29/21 Q1014

Time: 13:23 (17:23 UTC)

Forecast

The report was made 8 hours and 23 minutes ago, at 09:00 UTC
Forecast valid from 25 at 12 UTC to 25 at 24 UTC
Wind 5 kt from the West
Visibility 10 km or more
Scattered clouds at a height of 3000 ft
Few clouds at a height of 3500 ft, Towering cumulus.

TAF: SBVH 250900Z 2512/2524 27005KT 9999 SCT030 FEW035TCU TN23/2512Z TX29/2517Z RMK PHD

Weather observations and forecasts of more than 4000 airports (METAR and TAF reports).

The available stations are represented by yellow and red dots on the map.

Hover mouse over dot to see the name of the station.

Then click to see weather observations and forecasts.

To change the map : click on the green buttons with a black cross to zoom in, on the green button with a dash to zoom out, or on the green arrows for adjacent maps.


METAR-TAF: